Wetterstation Vordersexau
Wetterdaten: Woche 14.05.12 - 20.05.12 (KW20)
Datum Zeit Temp. A. Feuchte A. Luftdruck Regen Wind Richtung Taupunkt Windchill Windben
14.05.2012 00:00 5,4 C 72 % 1021,8 hPa 0,0 l/m 0,0 km/h SO 0,8 C 5,4 C 0,0 km/h
14.05.2012 01:00 5,2 C 73 % 1021,5 hPa 0,0 l/m 0,0 km/h O-SO 0,8 C 5,2 C 0,0 km/h
14.05.2012 02:00 4,3 C 76 % 1021,3 hPa 0,0 l/m 0,0 km/h NO 0,5 C 4,3 C 0,0 km/h
14.05.2012 03:00 2,9 C 79 % 1020,5 hPa 0,0 l/m 0,0 km/h NO -0,4 C 2,9 C 0,0 km/h
14.05.2012 04:00 2,4 C 81 % 1020,2 hPa 0,0 l/m 0,0 km/h NO -0,5 C 2,4 C 0,0 km/h
14.05.2012 05:00 1,8 C 83 % 1019,8 hPa 0,0 l/m 0,0 km/h NO -0,8 C 1,8 C 0,0 km/h
14.05.2012 06:00 1,6 C 83 % 1019,9 hPa 0,0 l/m 0,0 km/h O-SO -1,0 C 1,6 C 0,0 km/h
14.05.2012 07:00 4,3 C 84 % 1020,2 hPa 0,0 l/m 0,0 km/h N-NO 1,8 C 4,3 C 0,0 km/h
14.05.2012 08:00 15,6 C 53 % 1019,9 hPa 0,0 l/m 0,0 km/h W 6,1 C 15,6 C 0,0 km/h
14.05.2012 09:00 18,3 C 45 % 1019,4 hPa 0,0 l/m 0,0 km/h NW 6,2 C 18,3 C 0,0 km/h
14.05.2012 10:00 20,0 C 37 % 1018,6 hPa 0,0 l/m 0,0 km/h N-NO 4,9 C 20,0 C 0,0 km/h
14.05.2012 11:00 20,4 C 35 % 1017,8 hPa 0,0 l/m 0,0 km/h NW 4,4 C 20,4 C 0,0 km/h
14.05.2012 12:00 19,4 C 38 % 1017,0 hPa 0,0 l/m 3,2 km/h W 4,7 C 19,4 C 1,8 km/h
14.05.2012 13:00 20,3 C 38 % 1015,9 hPa 0,0 l/m 2,6 km/h N 5,5 C 20,3 C 1,4 km/h
14.05.2012 14:00 20,9 C 35 % 1015,1 hPa 0,0 l/m 0,0 km/h N-NW 4,9 C 20,9 C 0,0 km/h
14.05.2012 15:00 23,9 C 33 % 1014,3 hPa 0,0 l/m 1,3 km/h W 6,6 C 23,9 C 0,7 km/h
14.05.2012 16:00 24,1 C 31 % 1013,8 hPa 0,0 l/m 5,8 km/h W-SW 5,9 C 24,1 C 3,2 km/h
14.05.2012 17:00 27,2 C 27 % 1012,9 hPa 0,0 l/m 9,1 km/h N-NO 6,6 C 26,7 C 5,0 km/h
14.05.2012 18:00 26,5 C 24 % 1012,5 hPa 0,0 l/m 9,1 km/h SO 4,3 C 26,0 C 5,0 km/h
14.05.2012 19:00 23,1 C 29 % 1012,0 hPa 0,0 l/m 9,1 km/h NO 4,1 C 22,3 C 5,0 km/h
14.05.2012 20:00 15,6 C 42 % 1011,7 hPa 0,0 l/m 0,0 km/h O 2,7 C 15,6 C 0,0 km/h
14.05.2012 21:00 11,5 C 57 % 1011,9 hPa 0,0 l/m 0,0 km/h O-SO 3,3 C 11,5 C 0,0 km/h
14.05.2012 22:00 9,3 C 66 % 1012,0 hPa 0,0 l/m 0,0 km/h N-NO 3,3 C 9,3 C 0,0 km/h
14.05.2012 23:00 8,9 C 71 % 1011,7 hPa 0,0 l/m 0,0 km/h NO 3,9 C 8,9 C 0,0 km/h
15.05.2012 00:00 7,8 C 74 % 1011,2 hPa 0,0 l/m 0,0 km/h NO 3,5 C 7,8 C 0,0 km/h
15.05.2012 01:00 6,4 C 76 % 1011,2 hPa 0,0 l/m 0,0 km/h NO 2,5 C 6,4 C 0,0 km/h
15.05.2012 02:00 5,4 C 81 % 1010,8 hPa 0,0 l/m 0,0 km/h O-NO 2,4 C 5,4 C 0,0 km/h
15.05.2012 03:00 4,9 C 81 % 1010,4 hPa 0,0 l/m 0,0 km/h SO 1,9 C 4,9 C 0,0 km/h
15.05.2012 04:00 4,6 C 82 % 1009,9 hPa 0,0 l/m 0,0 km/h N-NO 1,8 C 4,6 C 0,0 km/h
15.05.2012 05:00 3,9 C 83 % 1010,6 hPa 0,0 l/m 0,0 km/h O-NO 1,3 C 3,9 C 0,0 km/h
15.05.2012 06:00 4,9 C 83 % 1010,4 hPa 0,0 l/m 0,0 km/h O-SO 2,3 C 4,9 C 0,0 km/h
15.05.2012 07:00 8,7 C 81 % 1010,4 hPa 0,0 l/m 0,0 km/h SO 5,6 C 8,7 C 0,0 km/h
15.05.2012 08:00 11,5 C 74 % 1010,3 hPa 0,0 l/m 4,5 km/h SW 7,0 C 11,5 C 2,5 km/h
15.05.2012 09:00 15,1 C 61 % 1009,6 hPa 0,0 l/m 0,0 km/h SW 7,6 C 15,1 C 0,0 km/h
15.05.2012 10:00 14,3 C 57 % 1009,4 hPa 0,0 l/m 20,7 km/h W-SW 5,9 C 8,7 C 11,5 km/h
15.05.2012 11:00 18,3 C 51 % 1009,1 hPa 0,0 l/m 32,4 km/h NW 8,0 C 12,0 C 18,0 km/h
15.05.2012 12:00 13,9 C 53 % 1009,5 hPa 0,0 l/m 2,6 km/h O-SO 4,5 C 13,9 C 1,4 km/h
15.05.2012 13:00 14,8 C 56 % 1009,3 hPa 0,0 l/m 0,0 km/h N-NW 6,1 C 14,8 C 0,0 km/h
15.05.2012 14:00 17,5 C 52 % 1008,9 hPa 0,0 l/m 17,5 km/h N 7,5 C 13,6 C 9,7 km/h
15.05.2012 15:00 12,1 C 60 % 1009,6 hPa 0,0 l/m 0,0 km/h S-SO 4,6 C 12,1 C 0,0 km/h
15.05.2012 16:00 10,4 C 79 % 1010,0 hPa 0,0 l/m 6,5 km/h S-SW 6,9 C 10,4 C 3,6 km/h
15.05.2012 17:00 14,9 C 62 % 1008,9 hPa 0,4 l/m 21,4 km/h W-NW 7,7 C 9,3 C 11,9 km/h
15.05.2012 18:00 11,3 C 59 % 1010,9 hPa 0,0 l/m 7,8 km/h N-NO 3,6 C 10,3 C 4,3 km/h
15.05.2012 19:00 8,4 C 68 % 1012,3 hPa 0,0 l/m 0,0 km/h S 2,8 C 8,4 C 0,0 km/h
15.05.2012 20:00 7,1 C 76 % 1012,5 hPa 0,7 l/m 0,0 km/h S-SW 3,2 C 7,1 C 0,0 km/h
15.05.2012 21:00 6,7 C 82 % 1013,4 hPa 0,7 l/m 0,0 km/h W-NW 3,8 C 6,7 C 0,0 km/h
15.05.2012 22:00 6,4 C 83 % 1014,2 hPa 0,4 l/m 0,0 km/h W-SW 3,7 C 6,4 C 0,0 km/h
15.05.2012 23:00 6,2 C 84 % 1015,2 hPa 0,0 l/m 13,6 km/h W-SW 3,7 C 1,2 C 7,6 km/h
16.05.2012 00:00 6,1 C 83 % 1015,7 hPa 0,0 l/m 18,1 km/h W-SW 3,4 C -1,0 C 10,1 km/h
16.05.2012 01:00 5,6 C 84 % 1016,0 hPa 0,0 l/m 21,4 km/h W-SW 3,1 C -2,9 C 11,9 km/h
16.05.2012 02:00 5,6 C 84 % 1016,4 hPa 0,0 l/m 12,3 km/h W-SW 3,1 C 1,3 C 6,8 km/h
16.05.2012 03:00 5,8 C 84 % 1016,5 hPa 0,0 l/m 26,6 km/h S-SW 3,3 C -4,3 C 14,8 km/h
16.05.2012 04:00 5,6 C 84 % 1016,7 hPa 0,4 l/m 24,6 km/h W-SW 3,1 C -4,0 C 13,7 km/h
16.05.2012 05:00 5,8 C 84 % 1016,8 hPa 0,0 l/m 20,1 km/h SW 3,3 C -2,2 C 11,2 km/h
16.05.2012 06:00 5,6 C 84 % 1017,6 hPa 0,0 l/m 8,4 km/h W 3,1 C 3,9 C 4,7 km/h
16.05.2012 07:00 5,7 C 84 % 1018,1 hPa 0,4 l/m 0,0 km/h W-SW 3,2 C 5,7 C 0,0 km/h
16.05.2012 08:00 6,1 C 84 % 1018,4 hPa 0,4 l/m 13,0 km/h N-NO 3,6 C 1,5 C 7,2 km/h
16.05.2012 09:00 5,1 C 85 % 1019,5 hPa 3,2 l/m 0,0 km/h NW 2,8 C 5,1 C 0,0 km/h
16.05.2012 10:00 6,7 C 85 % 1020,3 hPa 1,1 l/m 0,0 km/h SW 4,4 C 6,7 C 0,0 km/h
16.05.2012 11:00 9,3 C 81 % 1020,7 hPa 0,0 l/m 0,0 km/h N-NO 6,2 C 9,3 C 0,0 km/h
16.05.2012 12:00 11,8 C 68 % 1020,7 hPa 0,0 l/m 0,0 km/h W-NW 6,1 C 11,8 C 0,0 km/h
16.05.2012 13:00 10,9 C 66 % 1021,1 hPa 0,0 l/m 0,0 km/h N 4,8 C 10,9 C 0,0 km/h
16.05.2012 14:00 13,2 C 56 % 1021,5 hPa 0,4 l/m 7,8 km/h W-NW 4,6 C 12,3 C 4,3 km/h
16.05.2012 15:00 14,1 C 53 % 1021,6 hPa 0,0 l/m 9,1 km/h N-NO 4,7 C 12,6 C 5,0 km/h
16.05.2012 16:00 11,4 C 58 % 1021,4 hPa 0,0 l/m 5,8 km/h N-NO 3,4 C 11,4 C 3,2 km/h
16.05.2012 17:00 19,5 C 36 % 1021,3 hPa 0,0 l/m 1,9 km/h W 4,0 C 19,5 C 1,1 km/h
16.05.2012 18:00 13,3 C 50 % 1021,5 hPa 0,0 l/m 0,0 km/h NW 3,1 C 13,3 C 0,0 km/h
16.05.2012 19:00 11,1 C 53 % 1022,1 hPa 0,0 l/m 16,8 km/h S-SO 1,9 C 5,8 C 9,4 km/h
16.05.2012 20:00 9,3 C 63 % 1022,4 hPa 0,0 l/m 0,0 km/h O-NO 2,6 C 9,3 C 0,0 km/h
16.05.2012 21:00 6,5 C 75 % 1023,3 hPa 0,0 l/m 0,0 km/h O 2,4 C 6,5 C 0,0 km/h
16.05.2012 22:00 4,4 C 80 % 1023,8 hPa 0,0 l/m 0,0 km/h O-SO 1,3 C 4,4 C 0,0 km/h
16.05.2012 23:00 3,5 C 83 % 1024,1 hPa 0,0 l/m 0,0 km/h O-SO 0,9 C 3,5 C 0,0 km/h
17.05.2012 00:00 2,7 C 84 % 1024,1 hPa 0,0 l/m 0,0 km/h NO 0,3 C 2,7 C 0,0 km/h
17.05.2012 01:00 2,3 C 85 % 1023,7 hPa 0,0 l/m 0,0 km/h SO 0,0 C 2,3 C 0,0 km/h
17.05.2012 02:00 2,1 C 85 % 1023,3 hPa 0,0 l/m 0,0 km/h O-NO -0,2 C 2,1 C 0,0 km/h
17.05.2012 03:00 1,8 C 85 % 1023,0 hPa 0,0 l/m 0,0 km/h O-SO -0,4 C 1,8 C 0,0 km/h
17.05.2012 04:00 1,5 C 85 % 1022,7 hPa 0,0 l/m 0,0 km/h SO -0,7 C 1,5 C 0,0 km/h
17.05.2012 05:00 0,8 C 85 % 1022,5 hPa 0,0 l/m 0,0 km/h SO -1,4 C 0,8 C 0,0 km/h
17.05.2012 06:00 1,3 C 85 % 1022,1 hPa 0,0 l/m 0,0 km/h SO -0,9 C 1,3 C 0,0 km/h
17.05.2012 07:00 3,5 C 80 % 1021,7 hPa 0,0 l/m 0,0 km/h SO 0,4 C 3,5 C 0,0 km/h
17.05.2012 08:00 12,1 C 74 % 1021,4 hPa 0,0 l/m 0,0 km/h N 7,6 C 12,1 C 0,0 km/h
17.05.2012 09:00 16,9 C 54 % 1020,8 hPa 0,0 l/m 5,8 km/h SW 7,5 C 16,9 C 3,2 km/h
17.05.2012 10:00 17,9 C 48 % 1020,2 hPa 0,0 l/m 0,6 km/h S-SO 6,7 C 17,9 C 0,4 km/h
17.05.2012 11:00 18,9 C 39 % 1019,6 hPa 0,0 l/m 0,0 km/h SO 4,6 C 18,9 C 0,0 km/h
17.05.2012 12:00 19,2 C 40 % 1018,8 hPa 0,0 l/m 9,7 km/h S-SO 5,3 C 17,9 C 5,4 km/h
17.05.2012 13:00 19,7 C 39 % 1017,3 hPa 0,0 l/m 22,0 km/h S 5,4 C 15,5 C 12,2 km/h
17.05.2012 14:00 21,2 C 35 % 1016,6 hPa 0,0 l/m 20,1 km/h O-NO 5,1 C 17,7 C 11,2 km/h
17.05.2012 15:00 24,5 C 31 % 1015,5 hPa 0,0 l/m 0,0 km/h SO 6,3 C 24,5 C 0,0 km/h
17.05.2012 16:00 23,6 C 31 % 1014,4 hPa 0,0 l/m 35,0 km/h SO 5,5 C 19,4 C 19,4 km/h
17.05.2012 17:00 23,9 C 28 % 1013,2 hPa 0,0 l/m 24,0 km/h S-SO 4,3 C 20,8 C 13,3 km/h
17.05.2012 18:00 21,8 C 26 % 1012,3 hPa 0,0 l/m 21,4 km/h SO 1,4 C 18,3 C 11,9 km/h
17.05.2012 19:00 16,8 C 35 % 1012,0 hPa 0,0 l/m 22,0 km/h SO 1,3 C 11,6 C 12,2 km/h
17.05.2012 20:00 14,8 C 43 % 1011,5 hPa 0,0 l/m 0,0 km/h O 2,3 C 14,8 C 0,0 km/h
17.05.2012 21:00 13,3 C 47 % 1010,8 hPa 0,0 l/m 0,0 km/h SO 2,2 C 13,3 C 0,0 km/h
17.05.2012 22:00 13,1 C 47 % 1010,2 hPa 0,0 l/m 2,6 km/h NO 2,0 C 13,1 C 1,4 km/h
17.05.2012 23:00 13,3 C 46 % 1009,8 hPa 0,0 l/m 0,0 km/h N 1,9 C 13,3 C 0,0 km/h
18.05.2012 00:00 12,9 C 49 % 1009,9 hPa 0,0 l/m 0,0 km/h N-NO 2,5 C 12,9 C 0,0 km/h
18.05.2012 01:00 11,3 C 55 % 1009,3 hPa 0,0 l/m 0,0 km/h O-NO 2,6 C 11,3 C 0,0 km/h
18.05.2012 02:00 10,4 C 65 % 1009,1 hPa 0,0 l/m 0,0 km/h O 4,1 C 10,4 C 0,0 km/h
18.05.2012 03:00 10,9 C 62 % 1008,9 hPa 0,0 l/m 0,0 km/h O-SO 3,9 C 10,9 C 0,0 km/h
18.05.2012 04:00 10,3 C 66 % 1008,1 hPa 0,0 l/m 3,2 km/h SO 4,2 C 10,3 C 1,8 km/h
18.05.2012 05:00 10,0 C 70 % 1008,2 hPa 0,0 l/m 2,6 km/h W-NW 4,8 C 10,0 C 1,4 km/h
18.05.2012 06:00 9,3 C 77 % 1007,7 hPa 0,0 l/m 0,0 km/h N 5,5 C 9,3 C 0,0 km/h
18.05.2012 07:00 10,9 C 78 % 1008,4 hPa 0,0 l/m 0,0 km/h SO 7,2 C 10,9 C 0,0 km/h
18.05.2012 08:00 17,8 C 57 % 1008,5 hPa 0,0 l/m 1,3 km/h SO 9,2 C 17,8 C 0,7 km/h
18.05.2012 09:00 20,9 C 48 % 1008,5 hPa 0,0 l/m 0,0 km/h SW 9,5 C 20,9 C 0,0 km/h
18.05.2012 10:00 23,9 C 41 % 1008,5 hPa 0,0 l/m 0,0 km/h SW 9,8 C 23,9 C 0,0 km/h
18.05.2012 11:00 24,1 C 40 % 1008,4 hPa 0,0 l/m 35,0 km/h SW 9,6 C 20,1 C 19,4 km/h
18.05.2012 12:00 22,1 C 47 % 1008,8 hPa 0,0 l/m 22,7 km/h SW 10,3 C 18,5 C 12,6 km/h
18.05.2012 13:00 20,5 C 54 % 1009,0 hPa 0,0 l/m 31,1 km/h SW 10,9 C 15,3 C 17,3 km/h
18.05.2012 14:00 21,5 C 52 % 1009,0 hPa 0,0 l/m 22,7 km/h W-NW 11,2 C 17,7 C 12,6 km/h
18.05.2012 15:00 21,0 C 56 % 1009,0 hPa 0,0 l/m 5,8 km/h SW 11,9 C 21,0 C 3,2 km/h
18.05.2012 16:00 17,6 C 67 % 1009,3 hPa 0,0 l/m 20,1 km/h W-SW 11,4 C 13,1 C 11,2 km/h
18.05.2012 17:00 16,1 C 74 % 1009,8 hPa 0,0 l/m 15,6 km/h SO 11,5 C 12,3 C 8,6 km/h
18.05.2012 18:00 16,2 C 79 % 1009,5 hPa 0,4 l/m 9,1 km/h SO 12,6 C 14,8 C 5,0 km/h
18.05.2012 19:00 15,8 C 79 % 1009,6 hPa 0,0 l/m 0,0 km/h O-SO 12,2 C 15,8 C 0,0 km/h
18.05.2012 20:00 15,0 C 80 % 1009,8 hPa 0,0 l/m 0,0 km/h O-NO 11,6 C 15,0 C 0,0 km/h
18.05.2012 21:00 13,8 C 82 % 1010,4 hPa 0,0 l/m 0,0 km/h O 10,8 C 13,8 C 0,0 km/h
18.05.2012 22:00 13,3 C 83 % 1011,4 hPa 0,4 l/m 0,0 km/h SO 10,5 C 13,3 C 0,0 km/h
18.05.2012 23:00 13,1 C 83 % 1011,3 hPa 0,4 l/m 0,0 km/h SO 10,3 C 13,1 C 0,0 km/h
19.05.2012 00:00 12,9 C 83 % 1011,6 hPa 0,0 l/m 0,0 km/h SO 10,1 C 12,9 C 0,0 km/h
19.05.2012 01:00 12,6 C 82 % 1011,6 hPa 0,0 l/m 0,0 km/h SO 9,6 C 12,6 C 0,0 km/h
19.05.2012 02:00 12,1 C 82 % 1011,4 hPa 0,0 l/m 0,0 km/h NO 9,1 C 12,1 C 0,0 km/h
19.05.2012 03:00 11,6 C 82 % 1011,4 hPa 0,0 l/m 0,0 km/h SO 8,6 C 11,6 C 0,0 km/h
19.05.2012 04:00 11,6 C 81 % 1011,4 hPa 0,0 l/m 0,0 km/h O-NO 8,5 C 11,6 C 0,0 km/h
19.05.2012 05:00 11,2 C 81 % 1011,1 hPa 0,0 l/m 0,0 km/h SO 8,1 C 11,2 C 0,0 km/h
19.05.2012 06:00 11,5 C 80 % 1011,0 hPa 0,0 l/m 0,0 km/h SO 8,2 C 11,5 C 0,0 km/h
19.05.2012 07:00 12,4 C 79 % 1011,1 hPa 0,0 l/m 0,0 km/h S-SO 8,9 C 12,4 C 0,0 km/h
19.05.2012 08:00 19,3 C 75 % 1010,7 hPa 0,0 l/m 0,0 km/h O-SO 14,8 C 19,3 C 0,0 km/h
19.05.2012 09:00 20,3 C 69 % 1010,5 hPa 0,0 l/m 7,1 km/h W-SW 14,4 C 20,0 C 4,0 km/h
19.05.2012 10:00 22,6 C 66 % 1010,0 hPa 0,0 l/m 16,8 km/h NO 15,9 C 20,1 C 9,4 km/h
19.05.2012 11:00 26,2 C 46 % 1009,2 hPa 0,0 l/m 0,0 km/h W 13,6 C 26,2 C 0,0 km/h
19.05.2012 12:00 25,0 C 51 % 1008,6 hPa 0,0 l/m 4,5 km/h W 14,1 C 25,0 C 2,5 km/h
19.05.2012 13:00 24,7 C 53 % 1008,3 hPa 0,0 l/m 11,7 km/h W 14,5 C 23,5 C 6,5 km/h
19.05.2012 14:00 25,9 C 50 % 1007,8 hPa 0,0 l/m 4,5 km/h W-NW 14,7 C 25,9 C 2,5 km/h
19.05.2012 15:00 26,3 C 48 % 1007,3 hPa 0,0 l/m 3,9 km/h W 14,4 C 26,3 C 2,2 km/h
19.05.2012 16:00 22,1 C 56 % 1006,9 hPa 0,0 l/m 0,0 km/h W 12,9 C 22,1 C 0,0 km/h
19.05.2012 17:00 24,9 C 51 % 1006,7 hPa 0,0 l/m 2,6 km/h NO 14,1 C 24,9 C 1,4 km/h
19.05.2012 18:00 29,7 C 39 % 1006,1 hPa 0,0 l/m 0,0 km/h N-NW 14,2 C 29,7 C 0,0 km/h
19.05.2012 19:00 24,1 C 49 % 1005,8 hPa 0,0 l/m 0,0 km/h N-NO 12,7 C 24,1 C 0,0 km/h
19.05.2012 20:00 19,9 C 62 % 1005,4 hPa 0,0 l/m 0,0 km/h O-SO 12,4 C 19,9 C 0,0 km/h
19.05.2012 21:00 15,9 C 75 % 1005,2 hPa 0,0 l/m 0,0 km/h NO 11,5 C 15,9 C 0,0 km/h
19.05.2012 22:00 14,4 C 80 % 1006,0 hPa 0,0 l/m 0,0 km/h O-SO 11,0 C 14,4 C 0,0 km/h
19.05.2012 23:00 13,9 C 82 % 1006,6 hPa 0,0 l/m 0,0 km/h N-NO 10,9 C 13,9 C 0,0 km/h
20.05.2012 00:00 14,8 C 82 % 1006,8 hPa 0,0 l/m 0,0 km/h N-NO 11,8 C 14,8 C 0,0 km/h
20.05.2012 01:00 14,3 C 83 % 1007,2 hPa 0,0 l/m 0,0 km/h N 11,5 C 14,3 C 0,0 km/h
20.05.2012 02:00 13,3 C 83 % 1007,3 hPa 0,0 l/m 0,0 km/h NO 10,5 C 13,3 C 0,0 km/h
20.05.2012 03:00 12,3 C 84 % 1007,2 hPa 0,0 l/m 0,0 km/h O 9,7 C 12,3 C 0,0 km/h
20.05.2012 04:00 11,8 C 83 % 1006,5 hPa 0,0 l/m 0,0 km/h O-SO 9,0 C 11,8 C 0,0 km/h
20.05.2012 05:00 11,2 C 83 % 1005,8 hPa 0,0 l/m 0,0 km/h NO 8,4 C 11,2 C 0,0 km/h
20.05.2012 06:00 11,7 C 81 % 1005,6 hPa 0,0 l/m 0,0 km/h SO 8,5 C 11,7 C 0,0 km/h
20.05.2012 07:00 13,5 C 78 % 1005,3 hPa 0,0 l/m 0,0 km/h S-SO 9,7 C 13,5 C 0,0 km/h
20.05.2012 08:00 20,9 C 66 % 1005,0 hPa 0,0 l/m 0,0 km/h S 14,3 C 20,9 C 0,0 km/h
20.05.2012 09:00 22,9 C 62 % 1004,8 hPa 0,0 l/m 14,9 km/h W-NW 15,2 C 20,8 C 8,3 km/h
20.05.2012 10:00 24,8 C 59 % 1004,2 hPa 0,0 l/m 11,0 km/h SW 16,2 C 23,7 C 6,1 km/h
20.05.2012 11:00 26,2 C 54 % 1003,4 hPa 0,0 l/m 8,4 km/h W 16,1 C 25,8 C 4,7 km/h
20.05.2012 12:00 24,9 C 57 % 1002,9 hPa 0,0 l/m 21,4 km/h W-NW 15,8 C 22,4 C 11,9 km/h
20.05.2012 13:00 26,9 C 53 % 1002,7 hPa 0,0 l/m 22,7 km/h NW 16,5 C 24,9 C 12,6 km/h
20.05.2012 14:00 28,4 C 49 % 1001,8 hPa 0,0 l/m 6,5 km/h W 16,6 C 28,4 C 3,6 km/h
20.05.2012 15:00 29,6 C 44 % 1001,1 hPa 0,0 l/m 2,6 km/h N-NW 16,0 C 29,6 C 1,4 km/h
20.05.2012 16:00 32,8 C 37 % 1000,0 hPa 0,0 l/m 0,0 km/h N-NO 16,2 C 32,8 C 0,0 km/h
20.05.2012 17:00 26,2 C 53 % 999,8 hPa 0,0 l/m 1,3 km/h NO 15,8 C 26,2 C 0,7 km/h
20.05.2012 18:00 25,3 C 54 % 999,5 hPa 0,0 l/m 11,7 km/h N-NO 15,3 C 24,2 C 6,5 km/h
20.05.2012 19:00 24,2 C 58 % 999,3 hPa 0,0 l/m 0,0 km/h N-NO 15,4 C 24,2 C 0,0 km/h
20.05.2012 20:00 21,6 C 66 % 998,8 hPa 0,0 l/m 0,0 km/h O-SO 15,0 C 21,6 C 0,0 km/h
20.05.2012 21:00 18,3 C 77 % 998,2 hPa 0,0 l/m 0,0 km/h SO 14,2 C 18,3 C 0,0 km/h
20.05.2012 22:00 17,0 C 79 % 998,8 hPa 0,0 l/m 0,0 km/h S 13,3 C 17,0 C 0,0 km/h
20.05.2012 23:00 15,9 C 80 % 998,8 hPa 0,0 l/m 0,0 km/h W-SW 12,5 C 15,9 C 0,0 km/h
Min-Datum _ 17.05.12 14.05.12 20.05.12 - 14.05.12 - 17.05.12 16.05.12 14.05.12
_ Min-Zeit 05:30 18:30 21:30 - 00:30 - 05:30 03:30 00:30
Minimum _ 0,8 C 24 % 998,2 hPa - 0,0 km/h - -1,4 C -4,3 C 0,0 km/h
Max-Datum _ 20.05.12 16.05.12 16.05.12 16.05.12 17.05.12 - 20.05.12 20.05.12 17.05.12
_ Max-Zeit 16:30 09:30 23:30 09:30 16:30 - 14:30 16:30 16:30
Maximum _ 32,8 C 85 % 1024,1 hPa 3,2 l/m 35,0 km/h
SO
- 16,6 C 32,8 C 19,4 km/h
SO
Durchschnitt _ 14,3 C 64 % 1012,3 hPa #8,9 l/m 5,0 km/h SO 6,9 C 13,3 C 2,8 km/h
www.sexauwetter.de